Time;durP1;ratioP1;P1;durP2;ratioP2;P2;SDS_P1;SDS_P2;PMS_P1;PMS_P2;Temp;Humidity;BMP_temperature;BMP_pressure;BME280_temperature;BME280_humidity;BME280_pressure;Samples;Min_cycle;Max_cycle;Signal;HPM_P1;HPM_P2
2021/10/31 00:02:24;;;;;;;15.03;12.13;;;;;;;13.56;72.31;100150.63;5079394;28;20279;-64
2021/10/31 00:04:49;;;;;;;12.53;11.33;;;;;;;13.40;73.14;100156.94;5078935;28;20822;-64
2021/10/31 00:07:15;;;;;;;12.80;11.33;;;;;;;13.65;72.44;100157.50;5079155;28;20172;-64
2021/10/31 00:09:40;;;;;;;11.90;10.70;;;;;;;13.45;72.72;100158.63;5079510;28;20169;-64
2021/10/31 00:12:06;;;;;;;14.83;12.03;;;;;;;13.74;72.60;100165.25;5078867;28;20295;-64
2021/10/31 00:14:31;;;;;;;13.73;12.37;;;;;;;13.80;72.34;100162.56;5078860;28;20564;-65
2021/10/31 00:16:59;;;;;;;13.30;12.00;;;;;;;13.93;71.81;100168.50;5079229;28;20187;-65
2021/10/31 00:19:26;;;;;;;13.83;11.60;;;;;;;13.63;72.65;100165.38;5078953;28;20180;-65
2021/10/31 00:21:51;;;;;;;13.10;11.80;;;;;;;13.77;72.25;100172.19;5078540;28;20479;-64
2021/10/31 00:24:17;;;;;;;12.60;11.37;;;;;;;13.79;72.00;100175.69;5079198;28;20669;-65
2021/10/31 00:26:42;;;;;;;13.97;12.47;;;;;;;14.01;71.50;100167.53;5078664;28;20184;-66
2021/10/31 00:29:07;;;;;;;14.77;13.37;;;;;;;13.78;72.27;100172.19;5078673;28;20173;-65
2021/10/31 00:31:33;;;;;;;16.03;13.80;;;;;;;13.84;72.58;100180.84;5077874;28;20442;-64
2021/10/31 00:33:58;;;;;;;15.20;12.93;;;;;;;13.72;73.30;100184.50;5078626;28;20200;-64
2021/10/31 00:36:23;;;;;;;15.13;13.73;;;;;;;13.65;73.70;100191.56;5078606;28;20176;-65
2021/10/31 00:38:48;;;;;;;17.17;13.63;;;;;;;13.62;73.98;100189.84;5078849;28;20201;-65
2021/10/31 00:41:14;;;;;;;14.60;13.10;;;;;;;13.61;74.19;100185.50;5078218;28;20179;-65
2021/10/31 00:43:41;;;;;;;14.57;13.07;;;;;;;13.82;73.38;100191.34;5078480;28;20404;-64
2021/10/31 00:46:06;;;;;;;15.87;13.80;;;;;;;13.67;74.56;100196.81;5061371;28;20411;-64
2021/10/31 00:48:32;;;;;;;15.43;13.83;;;;;;;13.53;74.55;100207.41;5078534;28;20404;-64
2021/10/31 00:50:57;;;;;;;15.03;13.40;;;;;;;13.43;75.06;100204.88;5077990;28;20242;-64
2021/10/31 00:53:22;;;;;;;15.47;13.27;;;;;;;13.45;75.46;100200.50;5078795;28;20252;-64
2021/10/31 00:55:48;;;;;;;15.70;14.00;;;;;;;13.70;74.39;100197.59;5078242;28;20209;-65
2021/10/31 00:58:13;;;;;;;13.90;12.53;;;;;;;13.80;73.70;100195.72;5060927;28;20200;-64
2021/10/31 01:00:39;;;;;;;14.90;13.40;;;;;;;13.90;72.90;100186.88;5078625;28;20196;-64
2021/10/31 01:03:05;;;;;;;15.30;13.70;;;;;;;13.74;73.77;100196.69;5078186;28;20200;-64
2021/10/31 01:05:36;;;;;;;16.00;14.30;;;;;;;13.87;73.58;100192.19;5078064;28;20398;-65
2021/10/31 01:08:29;;;;;;;15.60;13.83;;;;;;;13.68;74.38;100191.53;5061136;28;20290;-64
2021/10/31 01:11:06;;;;;;;16.30;13.90;;;;;;;13.79;73.81;100200.13;5060692;28;20739;-64
2021/10/31 01:14:03;;;;;;;15.77;14.10;;;;;;;13.74;73.91;100201.91;5060775;28;20693;-64
2021/10/31 01:16:35;;;;;;;18.17;14.17;;;;;;;13.72;74.38;100195.84;5060628;28;20382;-63
2021/10/31 01:19:15;;;;;;;18.17;15.83;;;;;;;13.67;74.57;100195.03;5078062;28;20411;-64
2021/10/31 01:21:57;;;;;;;17.50;14.83;;;;;;;13.77;73.77;100195.78;5077871;28;20725;-65
2021/10/31 01:24:34;;;;;;;15.70;14.20;;;;;;;13.84;73.67;100193.94;5077962;28;20390;-64
2021/10/31 01:27:19;;;;;;;16.03;14.53;;;;;;;13.97;73.19;100193.78;5061099;28;20461;-64
2021/10/31 01:30:13;;;;;;;16.00;14.17;;;;;;;14.01;73.16;100212.09;5078498;28;20413;-64
2021/10/31 01:33:00;;;;;;;15.23;13.63;;;;;;;13.86;73.04;100223.63;5077895;28;20422;-65
2021/10/31 01:35:49;;;;;;;16.27;14.57;;;;;;;13.92;73.21;100226.16;5078096;28;20370;-64
2021/10/31 01:38:29;;;;;;;15.90;14.40;;;;;;;13.84;74.19;100228.00;5060808;28;20412;-64
2021/10/31 01:41:13;;;;;;;15.30;13.37;;;;;;;13.54;74.74;100236.19;5060412;28;20426;-65
2021/10/31 01:43:59;;;;;;;14.77;13.37;;;;;;;13.61;74.52;100226.53;5080485;28;20689;-64
2021/10/31 01:46:27;;;;;;;15.07;13.60;;;;;;;13.47;75.05;100235.41;5064376;28;20397;-64
2021/10/31 01:49:12;;;;;;;15.67;14.23;;;;;;;13.20;75.83;100233.03;5081656;28;20617;-65
2021/10/31 01:52:04;;;;;;;16.50;14.80;;;;;;;13.48;75.05;100229.28;5081364;28;20486;-65
2021/10/31 01:54:37;;;;;;;16.63;14.10;;;;;;;13.50;75.16;100234.50;5059674;28;20393;-64
2021/10/31 01:57:06;;;;;;;17.10;15.40;;;;;;;13.32;75.73;100246.00;5064311;28;20653;-65
2021/10/31 01:59:35;;;;;;;17.20;15.40;;;;;;;13.42;75.41;100237.22;5064349;28;20816;-64
2021/10/31 02:02:03;;;;;;;17.13;15.33;;;;;;;13.27;75.82;100246.06;5063849;28;20509;-64
2021/10/31 02:04:31;;;;;;;16.77;14.97;;;;;;;13.21;76.63;100237.41;5063968;28;20416;-64
2021/10/31 02:06:58;;;;;;;18.30;16.43;;;;;;;13.29;76.24;100225.94;5063888;28;20767;-64
2021/10/31 02:09:24;;;;;;;19.03;17.13;;;;;;;13.47;75.78;100231.91;5064429;28;20464;-64
2021/10/31 02:11:50;;;;;;;17.70;15.90;;;;;;;13.25;76.25;100247.81;5063734;28;20415;-64
2021/10/31 02:14:17;;;;;;;17.73;15.97;;;;;;;13.53;75.77;100237.09;5081104;28;20666;-64
2021/10/31 02:16:44;;;;;;;19.30;17.20;;;;;;;13.24;76.84;100247.81;5081686;28;20173;-64
2021/10/31 02:19:15;;;;;;;17.13;15.43;;;;;;;13.47;75.84;100256.34;5081133;28;20390;-64
2021/10/31 02:21:41;;;;;;;18.73;16.87;;;;;;;13.40;76.97;100262.53;5063804;28;20454;-66
2021/10/31 02:24:08;;;;;;;17.07;15.43;;;;;;;13.53;76.01;100255.44;5047560;28;20791;-65
2021/10/31 02:26:37;;;;;;;17.80;16.00;;;;;;;13.42;76.76;100249.41;5080972;28;20181;-65
2021/10/31 02:29:07;;;;;;;18.70;16.70;;;;;;;13.46;76.62;100256.38;5046719;28;20423;-64
2021/10/31 02:31:33;;;;;;;17.87;16.07;;;;;;;13.74;75.33;100259.56;5081216;28;20502;-65
2021/10/31 02:33:58;;;;;;;18.47;16.67;;;;;;;13.28;77.27;100257.38;5081041;28;20510;-64
2021/10/31 02:36:24;;;;;;;19.07;17.10;;;;;;;13.37;77.23;100267.81;5080817;28;20248;-65
2021/10/31 02:38:49;;;;;;;20.53;18.47;;;;;;;13.19;77.91;100266.19;5081225;28;20522;-63
2021/10/31 02:41:14;;;;;;;19.77;16.93;;;;;;;13.27;77.79;100264.38;5080596;28;20222;-63
2021/10/31 02:43:40;;;;;;;20.90;17.30;;;;;;;13.45;77.54;100268.59;5080698;28;20209;-64
2021/10/31 02:46:05;;;;;;;19.80;17.40;;;;;;;13.45;76.84;100265.97;5081318;28;20171;-64
2021/10/31 02:48:31;;;;;;;23.50;18.53;;;;;;;13.18;77.86;100274.03;5080517;28;20187;-64
2021/10/31 02:51:18;;;;;;;20.67;18.47;;;;;;;13.42;77.88;100271.25;5080479;28;20220;-64
2021/10/31 02:54:00;;;;;;;20.40;18.40;;;;;;;13.53;76.92;100270.25;5079616;28;20451;-64
2021/10/31 02:56:34;;;;;;;21.10;18.20;;;;;;;13.51;77.39;100265.03;5062910;28;20412;-64
2021/10/31 02:59:06;;;;;;;21.57;19.27;;;;;;;13.62;77.03;100275.41;5063204;28;20673;-65
2021/10/31 03:01:32;;;;;;;21.00;18.90;;;;;;;14.00;75.42;100271.50;5062833;28;20401;-64
2021/10/31 03:03:58;;;;;;;22.60;20.20;;;;;;;13.65;76.41;100285.84;5062869;28;20382;-65
2021/10/31 03:06:24;;;;;;;21.13;18.93;;;;;;;13.79;76.15;100273.47;5080269;28;20169;-65
2021/10/31 03:08:50;;;;;;;21.43;19.33;;;;;;;13.64;76.74;100278.91;5063373;28;20469;-64
2021/10/31 03:11:15;;;;;;;21.00;18.70;;;;;;;13.69;76.39;100276.22;5062713;28;20596;-65
2021/10/31 03:13:41;;;;;;;22.50;20.20;;;;;;;13.15;78.67;100274.94;5080043;28;20188;-64
2021/10/31 03:16:07;;;;;;;21.27;18.80;;;;;;;13.35;77.97;100285.22;5063308;28;20260;-64
2021/10/31 03:18:33;;;;;;;21.77;19.43;;;;;;;13.59;77.15;100275.44;5062706;28;20809;-64
2021/10/31 03:20:58;;;;;;;22.10;19.37;;;;;;;13.42;78.24;100289.59;5079847;28;20438;-64
2021/10/31 03:23:23;;;;;;;22.23;19.83;;;;;;;13.49;77.79;100290.41;5080178;28;20220;-65
2021/10/31 03:25:49;;;;;;;22.10;19.80;;;;;;;13.58;77.51;100287.66;5079918;28;20572;-65
2021/10/31 03:28:14;;;;;;;22.97;20.47;;;;;;;13.57;77.88;100288.56;5079990;28;20188;-64
2021/10/31 03:30:40;;;;;;;22.40;20.10;;;;;;;13.66;77.30;100291.97;5080184;28;20184;-65
2021/10/31 03:33:05;;;;;;;23.60;21.17;;;;;;;13.44;78.04;100285.19;5079770;28;20630;-64
2021/10/31 03:35:31;;;;;;;24.27;21.77;;;;;;;13.70;76.90;100291.91;5079674;28;20263;-64
2021/10/31 03:37:57;;;;;;;23.83;18.83;;;;;;;13.60;77.56;100293.75;5080270;28;20173;-64
2021/10/31 03:40:22;;;;;;;23.53;21.00;;;;;;;13.77;77.42;100300.56;5079604;28;20494;-64
2021/10/31 03:42:48;;;;;;;22.30;19.70;;;;;;;13.83;76.72;100297.91;5079376;28;20478;-64
2021/10/31 03:45:14;;;;;;;23.40;20.00;;;;;;;14.11;76.00;100311.56;5080069;28;20169;-64
2021/10/31 03:47:45;;;;;;;23.40;20.53;;;;;;;13.87;76.83;100312.72;5079429;28;20173;-65
2021/10/31 03:50:11;;;;;;;23.20;20.80;;;;;;;14.00;76.12;100318.66;5079360;28;20233;-64
2021/10/31 03:52:36;;;;;;;23.43;20.93;;;;;;;14.08;76.00;100315.97;5079400;28;20419;-64
2021/10/31 03:55:02;;;;;;;24.00;21.37;;;;;;;13.82;76.52;100323.22;5079322;28;20208;-64
2021/10/31 03:57:28;;;;;;;22.40;20.00;;;;;;;14.03;75.83;100330.88;5079072;28;20222;-64
2021/10/31 03:59:53;;;;;;;24.70;22.27;;;;;;;13.83;76.54;100337.22;5079604;28;20460;-64
2021/10/31 04:02:19;;;;;;;22.80;20.50;;;;;;;13.65;76.73;100325.13;5079032;28;20238;-64
2021/10/31 04:04:44;;;;;;;24.23;21.70;;;;;;;13.94;76.25;100339.72;5079210;28;20256;-64
2021/10/31 04:07:09;;;;;;;25.50;22.63;;;;;;;13.46;77.62;100353.25;5079651;28;20173;-65
2021/10/31 04:09:36;;;;;;;24.73;22.23;;;;;;;13.88;76.14;100347.63;5079119;28;20258;-65
2021/10/31 04:12:01;;;;;;;24.50;21.87;;;;;;;13.71;76.71;100351.28;5078704;28;20542;-65
2021/10/31 04:14:26;;;;;;;23.20;20.80;;;;;;;13.50;77.47;100341.88;5079462;28;20486;-64
2021/10/31 04:16:52;;;;;;;27.13;22.47;;;;;;;13.61;77.27;100340.03;5078756;28;20168;-64
2021/10/31 04:19:17;;;;;;;24.33;21.73;;;;;;;13.55;77.67;100341.84;5078708;28;20391;-64
2021/10/31 04:21:43;;;;;;;23.73;21.30;;;;;;;13.40;78.45;100351.56;5078918;28;20210;-64
2021/10/31 04:24:08;;;;;;;27.33;24.07;;;;;;;13.61;77.36;100342.66;5078761;28;20176;-64
2021/10/31 04:26:33;;;;;;;24.20;21.60;;;;;;;13.64;77.30;100344.38;5078967;28;20180;-64
2021/10/31 04:28:59;;;;;;;27.20;24.40;;;;;;;13.62;77.16;100340.88;5079185;28;20174;-64
2021/10/31 04:31:24;;;;;;;25.60;22.90;;;;;;;13.87;76.17;100331.03;5078432;28;20608;-64
2021/10/31 04:33:49;;;;;;;23.80;21.37;;;;;;;13.63;77.56;100346.13;5078534;28;20204;-65
2021/10/31 04:36:17;;;;;;;23.80;21.37;;;;;;;13.53;77.69;100343.59;5079017;28;20165;-65
2021/10/31 04:38:42;;;;;;;25.07;22.03;;;;;;;13.53;77.83;100351.44;5078758;28;20563;-64
2021/10/31 04:41:09;;;;;;;24.73;22.23;;;;;;;13.81;77.01;100355.56;5078385;28;20457;-64
2021/10/31 04:43:34;;;;;;;25.50;22.83;;;;;;;13.60;77.33;100350.53;5078853;28;20484;-64
2021/10/31 04:46:00;;;;;;;26.17;23.37;;;;;;;13.63;77.14;100356.59;5078395;28;20394;-64
2021/10/31 04:48:25;;;;;;;33.87;30.17;;;;;;;13.55;77.97;100368.88;5078199;28;20196;-64
2021/10/31 04:50:52;;;;;;;34.47;30.97;;;;;;;13.51;77.83;100364.56;5078490;28;20593;-65
2021/10/31 04:53:18;;;;;;;38.27;34.37;;;;;;;13.90;76.17;100366.84;5078389;28;20192;-64
2021/10/31 04:55:43;;;;;;;40.17;36.17;;;;;;;13.83;76.59;100368.66;5078456;28;20707;-65
2021/10/31 04:58:09;;;;;;;40.97;35.37;;;;;;;14.06;75.45;100368.41;5078313;28;20187;-64
2021/10/31 05:00:35;;;;;;;35.00;31.40;;;;;;;13.82;75.72;100375.63;5060753;28;20183;-64
2021/10/31 05:03:01;;;;;;;34.17;30.63;;;;;;;13.83;76.11;100379.13;5078672;28;20722;-65
2021/10/31 05:05:27;;;;;;;25.27;22.67;;;;;;;13.42;77.49;100382.97;5078099;28;20203;-64
2021/10/31 05:07:55;;;;;;;23.20;20.57;;;;;;;13.57;77.96;100376.72;5078146;28;20443;-64
2021/10/31 05:10:22;;;;;;;24.50;21.43;;;;;;;13.38;77.44;100374.28;5060980;28;20169;-64
2021/10/31 05:12:48;;;;;;;30.10;22.10;;;;;;;13.66;76.74;100379.28;5077873;28;20510;-66
2021/10/31 05:15:13;;;;;;;23.80;21.30;;;;;;;13.33;77.71;100373.41;5078125;28;20455;-65
2021/10/31 05:17:40;;;;;;;23.53;20.70;;;;;;;13.54;77.48;100371.53;5078103;28;20169;-65
2021/10/31 05:20:06;;;;;;;27.07;23.30;;;;;;;13.82;76.06;100374.75;5077822;28;20389;-65
2021/10/31 05:22:31;;;;;;;26.37;23.70;;;;;;;13.62;76.31;100369.69;5060275;28;20516;-64
2021/10/31 05:24:56;;;;;;;26.53;22.50;;;;;;;13.68;76.57;100367.03;5078209;28;20177;-66
2021/10/31 05:27:22;;;;;;;27.10;22.20;;;;;;;13.60;76.41;100366.25;5078040;28;20176;-66
2021/10/31 05:29:48;;;;;;;25.07;21.63;;;;;;;13.64;76.37;100366.19;5078310;28;20205;-65
2021/10/31 05:32:13;;;;;;;26.80;23.57;;;;;;;13.58;76.34;100370.63;5078432;28;20302;-66
2021/10/31 05:34:39;;;;;;;24.47;21.43;;;;;;;13.61;76.14;100375.81;5077859;28;20451;-65
2021/10/31 05:37:04;;;;;;;23.97;21.47;;;;;;;13.59;75.98;100374.97;5078024;28;20176;-66
2021/10/31 05:39:29;;;;;;;25.27;22.67;;;;;;;13.41;76.64;100382.09;5078224;28;20176;-65
2021/10/31 05:41:54;;;;;;;22.80;20.27;;;;;;;13.40;76.78;100374.25;5077675;28;20204;-66
2021/10/31 05:44:20;;;;;;;24.20;21.70;;;;;;;13.12;77.56;100375.31;5077939;28;20188;-64
2021/10/31 05:46:45;;;;;;;22.60;20.20;;;;;;;13.34;77.21;100372.53;5078511;28;20176;-65
2021/10/31 05:49:10;;;;;;;23.73;21.27;;;;;;;13.29;77.46;100374.31;5077747;28;20264;-64
2021/10/31 05:51:36;;;;;;;23.97;21.47;;;;;;;13.42;76.50;100378.63;5088143;28;20224;-65
2021/10/31 05:54:02;;;;;;;22.20;19.90;;;;;;;13.43;76.35;100380.31;5098020;28;20172;-64
2021/10/31 05:56:27;;;;;;;24.83;21.90;;;;;;;13.40;76.69;100380.34;5097897;28;20179;-64
2021/10/31 05:58:53;;;;;;;26.30;21.50;;;;;;;13.51;76.22;100382.03;5097985;28;20412;-65
2021/10/31 06:01:18;;;;;;;25.27;22.30;;;;;;;13.00;78.13;100384.97;5098220;28;20172;-64
2021/10/31 06:03:43;;;;;;;22.60;20.20;;;;;;;13.37;76.39;100384.75;5097772;28;20200;-64
2021/10/31 06:06:09;;;;;;;24.30;20.23;;;;;;;13.12;78.69;100388.41;5097818;28;20176;-65
2021/10/31 06:08:34;;;;;;;22.13;19.80;;;;;;;13.29;77.13;100392.63;5098192;28;20256;-65
2021/10/31 06:10:59;;;;;;;21.43;19.10;;;;;;;13.52;76.22;100383.75;5097768;28;20165;-65
2021/10/31 06:13:25;;;;;;;22.30;19.53;;;;;;;13.06;77.45;100385.81;5097853;28;20196;-64
2021/10/31 06:15:50;;;;;;;24.10;19.47;;;;;;;13.46;76.68;100389.91;5098171;28;20169;-65
2021/10/31 06:18:17;;;;;;;22.30;19.37;;;;;;;13.39;76.80;100398.69;5097000;28;20177;-65
2021/10/31 06:20:42;;;;;;;21.23;19.03;;;;;;;13.16;77.33;100393.59;5096831;28;20219;-64
2021/10/31 06:23:08;;;;;;;19.90;17.90;;;;;;;13.47;76.74;100397.75;5098112;28;20464;-63
2021/10/31 06:25:33;;;;;;;21.27;19.07;;;;;;;13.57;75.94;100388.09;5097740;28;20198;-64
2021/10/31 06:27:58;;;;;;;20.37;18.27;;;;;;;13.53;75.71;100395.97;5101440;28;20181;-64
2021/10/31 06:30:24;;;;;;;20.83;18.60;;;;;;;13.59;75.46;100398.56;5100137;28;20199;-64
2021/10/31 06:32:49;;;;;;;22.73;20.53;;;;;;;13.61;74.94;100399.38;5101140;28;20195;-64
2021/10/31 06:35:14;;;;;;;21.33;19.07;;;;;;;13.56;75.50;100395.97;5101268;28;20430;-64
2021/10/31 06:37:40;;;;;;;27.53;20.27;;;;;;;13.41;76.08;100399.53;5101500;28;20165;-63
2021/10/31 06:40:06;;;;;;;22.13;19.93;;;;;;;13.41;75.57;100408.28;5101206;28;20560;-64
2021/10/31 06:42:31;;;;;;;24.80;19.97;;;;;;;13.59;75.79;100403.78;5100850;28;20219;-63
2021/10/31 06:44:57;;;;;;;23.60;21.10;;;;;;;13.43;76.00;100401.28;5101320;28;20414;-63
2021/10/31 06:47:23;;;;;;;21.80;18.70;;;;;;;13.84;74.27;100412.28;5100868;28;20191;-64
2021/10/31 06:49:49;;;;;;;22.77;20.40;;;;;;;13.71;74.42;100422.03;5099085;28;20183;-64
2021/10/31 06:52:15;;;;;;;22.67;19.20;;;;;;;13.41;75.24;100429.22;5080782;28;20404;-64
2021/10/31 06:54:40;;;;;;;21.70;19.40;;;;;;;13.66;75.00;100417.69;5080520;28;20173;-65
2021/10/31 06:57:05;;;;;;;22.87;20.50;;;;;;;13.86;73.98;100422.78;5062989;28;20434;-65
2021/10/31 06:59:32;;;;;;;22.77;20.47;;;;;;;13.82;74.14;100420.16;5081006;28;20164;-65
2021/10/31 07:01:59;;;;;;;22.63;19.27;;;;;;;13.74;74.09;100421.13;5080097;28;20500;-65
2021/10/31 07:04:24;;;;;;;22.40;18.30;;;;;;;14.17;73.02;100412.84;5062944;28;20817;-64
2021/10/31 07:06:49;;;;;;;22.37;19.20;;;;;;;14.00;73.35;100418.25;5080685;28;20374;-64
2021/10/31 07:09:14;;;;;;;22.87;19.00;;;;;;;13.85;73.26;100423.66;5080262;28;20534;-64
2021/10/31 07:11:40;;;;;;;22.37;18.27;;;;;;;13.71;74.01;100418.53;5080207;28;20188;-65
2021/10/31 07:14:05;;;;;;;22.30;19.10;;;;;;;13.86;74.08;100425.41;5080712;28;20260;-64
2021/10/31 07:16:31;;;;;;;21.77;18.93;;;;;;;13.38;74.90;100423.13;5080256;28;20173;-66
2021/10/31 07:18:56;;;;;;;21.30;19.10;;;;;;;13.92;73.58;100430.56;5080087;28;20435;-64
2021/10/31 07:21:22;;;;;;;20.67;17.83;;;;;;;14.01;73.91;100427.88;5080262;28;20211;-64
2021/10/31 07:23:47;;;;;;;19.23;17.30;;;;;;;13.66;74.02;100422.94;5079799;28;20205;-65
2021/10/31 07:26:14;;;;;;;19.27;17.37;;;;;;;13.84;73.54;100429.75;5079946;28;20197;-64
2021/10/31 07:28:39;;;;;;;20.40;17.63;;;;;;;13.65;74.45;100432.53;5080253;28;20161;-64
2021/10/31 07:31:06;;;;;;;19.53;17.57;;;;;;;13.57;74.30;100427.38;5079681;28;20672;-65
2021/10/31 07:33:31;;;;;;;20.17;16.97;;;;;;;13.73;74.35;100428.09;5079722;28;20578;-64
2021/10/31 07:35:56;;;;;;;18.63;16.73;;;;;;;14.68;70.70;100427.16;5080013;28;20523;-64
2021/10/31 07:38:22;;;;;;;18.07;16.27;;;;;;;14.77;70.77;100427.91;5079373;28;20184;-64
2021/10/31 07:40:47;;;;;;;22.50;16.50;;;;;;;14.82;70.19;100420.84;5098017;28;20245;-64
2021/10/31 07:43:12;;;;;;;18.20;16.27;;;;;;;13.94;72.04;100420.94;5100076;28;20231;-62
2021/10/31 07:45:39;;;;;;;17.10;15.40;;;;;;;14.78;71.11;100432.28;5099802;28;20168;-62
2021/10/31 07:48:05;;;;;;;17.90;16.07;;;;;;;14.97;68.82;100424.19;5099634;28;20164;-62
2021/10/31 07:50:34;;;;;;;17.33;15.53;;;;;;;16.45;64.38;100411.22;5099529;28;20486;-62
2021/10/31 07:53:07;;;;;;;16.10;14.70;;;;;;;17.04;61.70;100414.44;5099641;28;20172;-63
2021/10/31 07:55:34;;;;;;;15.53;14.10;;;;;;;17.47;60.41;100416.91;5100037;28;20389;-63
2021/10/31 07:58:01;;;;;;;14.70;13.50;;;;;;;17.07;60.93;100422.25;5099770;28;20415;-63
2021/10/31 08:00:27;;;;;;;17.03;15.53;;;;;;;16.24;63.95;100428.28;5099251;28;20525;-63
2021/10/31 08:02:53;;;;;;;16.53;14.37;;;;;;;16.80;61.94;100414.88;5099589;28;20541;-63
2021/10/31 08:05:19;;;;;;;15.80;14.40;;;;;;;16.44;62.43;100414.75;5099295;28;20176;-63
2021/10/31 08:07:45;;;;;;;15.20;13.70;;;;;;;17.73;59.32;100418.03;5099312;28;20460;-63
2021/10/31 08:10:11;;;;;;;14.90;13.57;;;;;;;17.05;60.99;100422.28;5099613;28;20544;-62
2021/10/31 08:12:37;;;;;;;15.37;13.90;;;;;;;16.47;62.83;100416.47;5098988;28;20200;-63
2021/10/31 08:15:02;;;;;;;15.50;14.10;;;;;;;15.88;64.62;100414.91;5099146;28;20472;-65
2021/10/31 08:17:28;;;;;;;15.10;13.77;;;;;;;15.86;65.10;100432.47;5099679;28;20183;-63
2021/10/31 08:19:53;;;;;;;15.50;13.97;;;;;;;16.76;62.19;100421.09;5099193;28;20172;-64
2021/10/31 08:22:18;;;;;;;14.53;13.23;;;;;;;16.39;62.70;100419.22;5099143;28;20204;-66
2021/10/31 08:24:44;;;;;;;15.70;14.30;;;;;;;15.65;65.73;100429.28;5099620;28;20434;-64
2021/10/31 08:27:09;;;;;;;16.23;14.70;;;;;;;16.15;64.04;100428.47;5099138;28;20172;-65
2021/10/31 08:29:35;;;;;;;15.37;13.90;;;;;;;15.90;64.27;100426.28;5099004;28;20176;-66
2021/10/31 08:32:01;;;;;;;15.33;13.93;;;;;;;16.15;63.67;100421.41;5099065;28;20168;-64
2021/10/31 08:34:26;;;;;;;16.23;14.73;;;;;;;16.07;63.75;100428.59;5099419;28;20254;-65
2021/10/31 08:36:51;;;;;;;16.73;15.03;;;;;;;15.83;63.38;100412.38;5108831;28;20571;-65
2021/10/31 08:39:17;;;;;;;14.97;13.57;;;;;;;17.45;60.50;100396.78;5106795;28;20160;-65
2021/10/31 08:41:42;;;;;;;15.93;14.43;;;;;;;16.96;60.53;100396.16;5089486;28;20430;-64
2021/10/31 08:44:08;;;;;;;15.47;13.97;;;;;;;18.84;55.81;100385.13;5085801;28;20580;-65
2021/10/31 08:46:34;;;;;;;14.17;12.80;;;;;;;19.78;52.74;100374.19;5062013;28;20222;-64
2021/10/31 08:49:01;;;;;;;13.23;12.10;;;;;;;19.74;52.39;100377.88;5097444;28;20266;-65
2021/10/31 08:51:26;;;;;;;13.67;12.27;;;;;;;19.65;52.39;100368.44;5099484;28;20890;-65
2021/10/31 08:53:53;;;;;;;13.07;11.87;;;;;;;20.34;50.20;100364.31;5082383;28;20414;-64
2021/10/31 08:56:19;;;;;;;13.60;12.30;;;;;;;20.14;51.04;100360.59;5074357;28;20177;-64
2021/10/31 08:58:45;;;;;;;13.33;12.13;;;;;;;20.55;49.94;100367.06;5079189;28;20423;-64
2021/10/31 09:01:14;;;;;;;13.87;12.70;;;;;;;19.35;51.54;100375.63;5078920;28;20407;-66
2021/10/31 09:03:40;;;;;;;13.20;12.00;;;;;;;20.68;49.37;100358.63;5060962;28;20201;-65
2021/10/31 09:06:07;;;;;;;13.70;12.60;;;;;;;18.99;53.84;100373.25;5078154;28;20419;-65
2021/10/31 09:08:32;;;;;;;12.70;11.60;;;;;;;18.21;55.80;100374.59;5078317;28;20419;-64
2021/10/31 09:10:57;;;;;;;13.87;12.60;;;;;;;19.79;51.46;100362.66;5077770;28;20434;-65
2021/10/31 09:13:23;;;;;;;12.90;11.67;;;;;;;19.48;52.80;100360.22;5085395;28;20228;-65
2021/10/31 09:15:49;;;;;;;12.63;11.53;;;;;;;18.63;55.37;100366.38;5098569;28;20440;-65
2021/10/31 09:18:15;;;;;;;12.37;11.20;;;;;;;18.00;56.68;100370.81;5098336;28;20213;-65
2021/10/31 09:20:40;;;;;;;13.80;12.60;;;;;;;19.10;53.93;100364.97;5097979;28;20422;-65
2021/10/31 09:23:06;;;;;;;13.57;12.37;;;;;;;19.40;52.82;100360.47;5098451;28;20243;-65
2021/10/31 09:25:32;;;;;;;13.97;12.63;;;;;;;18.82;54.66;100361.41;5080516;28;20172;-65
2021/10/31 09:27:59;;;;;;;13.20;12.10;;;;;;;17.98;56.64;100362.03;5098019;28;20450;-64
2021/10/31 09:30:32;;;;;;;13.70;12.40;;;;;;;18.64;55.14;100361.94;5098563;28;20398;-65
2021/10/31 09:32:57;;;;;;;13.13;12.03;;;;;;;17.78;57.12;100352.88;5098160;28;20406;-66
2021/10/31 09:35:26;;;;;;;12.80;11.70;;;;;;;18.37;56.21;100351.28;5098007;28;20425;-66
2021/10/31 09:37:56;;;;;;;13.90;12.70;;;;;;;18.98;54.28;100347.75;5097900;28;20183;-65
2021/10/31 09:40:22;;;;;;;13.37;12.10;;;;;;;19.42;52.48;100341.94;5097870;28;20417;-65
2021/10/31 09:42:49;;;;;;;12.93;11.73;;;;;;;18.93;53.65;100352.28;5097957;28;20888;-65
2021/10/31 09:45:14;;;;;;;13.27;12.17;;;;;;;18.76;55.04;100340.44;5097773;28;20471;-65
2021/10/31 09:47:40;;;;;;;13.80;12.40;;;;;;;19.04;54.26;100334.34;5089149;28;20460;-66
2021/10/31 09:50:06;;;;;;;13.67;12.30;;;;;;;18.22;56.04;100334.13;5061348;28;20445;-65
2021/10/31 09:52:32;;;;;;;14.13;12.80;;;;;;;19.79;52.42;100322.16;5077575;28;20173;-64
2021/10/31 09:54:57;;;;;;;15.80;12.00;;;;;;;18.77;54.89;100325.50;5078141;28;20619;-64
2021/10/31 09:57:23;;;;;;;12.43;11.23;;;;;;;20.05;51.78;100307.16;5078294;28;20177;-65
2021/10/31 09:59:54;;;;;;;12.37;11.23;;;;;;;20.32;50.61;100311.44;5077801;28;20180;-64
2021/10/31 10:05:26;;;;;;;12.20;11.10;;;;;;;17.95;56.67;100336.63;5080835;28;20414;-63
2021/10/31 10:08:27;;;;;;;13.43;12.23;;;;;;;18.72;55.29;100338.81;5081255;28;20411;-64
2021/10/31 10:10:54;;;;;;;13.50;12.30;;;;;;;18.10;56.71;100350.31;4964845;28;20427;-64
2021/10/31 10:13:25;;;;;;;12.93;11.80;;;;;;;17.72;57.79;100342.50;5061285;28;20435;-64
2021/10/31 10:15:53;;;;;;;13.23;12.03;;;;;;;17.42;59.19;100350.28;5081083;28;20407;-64
2021/10/31 10:18:32;;;;;;;12.27;11.13;;;;;;;17.25;59.64;100339.28;5063623;28;20721;-65
2021/10/31 10:21:14;;;;;;;14.13;12.83;;;;;;;18.00;57.77;100340.00;5081185;28;20439;-65
2021/10/31 10:23:55;;;;;;;13.43;12.23;;;;;;;17.56;58.11;100327.97;5081214;28;20731;-66
2021/10/31 10:26:30;;;;;;;13.80;12.40;;;;;;;17.44;58.95;100337.94;5080996;28;20803;-65
2021/10/31 10:29:20;;;;;;;13.17;11.97;;;;;;;18.43;56.73;100335.28;5080907;28;20445;-65
2021/10/31 10:31:56;;;;;;;12.07;11.00;;;;;;;17.27;59.01;100342.78;5080696;28;20423;-65
2021/10/31 10:34:50;;;;;;;12.27;11.10;;;;;;;17.98;57.73;100325.13;5063541;28;20436;-65
2021/10/31 10:37:19;;;;;;;12.40;11.03;;;;;;;18.08;56.99;100339.78;5080968;28;20403;-65
2021/10/31 10:39:52;;;;;;;11.17;10.10;;;;;;;16.86;59.54;100332.28;5080973;28;20407;-65
2021/10/31 10:42:19;;;;;;;11.13;10.13;;;;;;;16.99;59.63;100328.50;5080651;28;20463;-65
2021/10/31 10:44:44;;;;;;;11.57;10.37;;;;;;;17.78;57.77;100318.59;5063294;28;20821;-64
2021/10/31 10:47:17;;;;;;;11.03;9.97;;;;;;;18.24;56.26;100320.88;5085388;28;20449;-65
2021/10/31 10:49:44;;;;;;;12.33;9.17;;;;;;;18.54;55.55;100323.53;5100908;28;20237;-65
2021/10/31 10:52:20;;;;;;;10.53;9.43;;;;;;;18.05;56.38;100316.16;5121057;28;20413;-65
2021/10/31 10:54:47;;;;;;;12.20;9.53;;;;;;;17.77;57.47;100314.22;5121231;28;20456;-63
2021/10/31 10:57:14;;;;;;;9.20;8.30;;;;;;;17.99;56.68;100313.69;5103364;28;20642;-65
2021/10/31 10:59:39;;;;;;;11.50;8.60;;;;;;;18.42;54.50;100296.59;5121102;28;20413;-63
2021/10/31 11:02:10;;;;;;;10.30;9.30;;;;;;;18.89;54.20;100287.28;5103302;28;20453;-65
2021/10/31 11:04:37;;;;;;;8.73;7.93;;;;;;;17.81;56.39;100286.88;5103605;28;20220;-64
2021/10/31 11:07:03;;;;;;;8.37;7.47;;;;;;;17.46;56.42;100283.41;5120752;28;20445;-65
2021/10/31 11:09:45;;;;;;;8.90;8.00;;;;;;;17.56;56.50;100276.13;5120726;28;20421;-65
2021/10/31 11:12:33;;;;;;;8.53;7.67;;;;;;;17.78;55.99;100268.50;5120447;28;20429;-64
2021/10/31 11:15:05;;;;;;;9.33;8.43;;;;;;;16.83;59.80;100270.03;5119905;28;20450;-65
2021/10/31 11:17:31;;;;;;;9.97;9.07;;;;;;;17.14;58.98;100274.59;5120605;28;20679;-65